地図

経路データ

SID SEASON NUMBER BASIN SUBBASIN NAME ISO_TIME NATURE LAT LON WMO_WIND WMO_PRES WMO_AGENCY TRACK_TYPE DIST2LAND LANDFALL IFLAG USA_AGENCY USA_ATCF_ID USA_LAT USA_LON USA_RECORD USA_STATUS USA_WIND USA_PRES USA_SSHS USA_R34_NE USA_R34_SE USA_R34_SW USA_R34_NW USA_R50_NE USA_R50_SE USA_R50_SW USA_R50_NW USA_R64_NE USA_R64_SE USA_R64_SW USA_R64_NW USA_POCI USA_ROCI USA_RMW USA_EYE TOKYO_LAT TOKYO_LON TOKYO_GRADE TOKYO_WIND TOKYO_PRES TOKYO_R50_DIR TOKYO_R50_LONG TOKYO_R50_SHORT TOKYO_R30_DIR TOKYO_R30_LONG TOKYO_R30_SHORT TOKYO_LAND CMA_LAT CMA_LON CMA_CAT CMA_WIND CMA_PRES HKO_LAT HKO_LON HKO_CAT HKO_WIND HKO_PRES NEWDELHI_LAT NEWDELHI_LON NEWDELHI_GRADE NEWDELHI_WIND NEWDELHI_PRES NEWDELHI_CI NEWDELHI_DP NEWDELHI_POCI REUNION_LAT REUNION_LON REUNION_TYPE REUNION_WIND REUNION_PRES REUNION_TNUM REUNION_CI REUNION_RMW REUNION_R34_NE REUNION_R34_SE REUNION_R34_SW REUNION_R34_NW REUNION_R50_NE REUNION_R50_SE REUNION_R50_SW REUNION_R50_NW REUNION_R64_NE REUNION_R64_SE REUNION_R64_SW REUNION_R64_NW BOM_LAT BOM_LON BOM_TYPE BOM_WIND BOM_PRES BOM_TNUM BOM_CI BOM_RMW BOM_R34_NE BOM_R34_SE BOM_R34_SW BOM_R34_NW BOM_R50_NE BOM_R50_SE BOM_R50_SW BOM_R50_NW BOM_R64_NE BOM_R64_SE BOM_R64_SW BOM_R64_NW BOM_ROCI BOM_POCI BOM_EYE BOM_POS_METHOD BOM_PRES_METHOD NADI_LAT NADI_LON NADI_CAT NADI_WIND NADI_PRES WELLINGTON_LAT WELLINGTON_LON WELLINGTON_WIND WELLINGTON_PRES DS824_LAT DS824_LON DS824_STAGE DS824_WIND DS824_PRES TD9636_LAT TD9636_LON TD9636_STAGE TD9636_WIND TD9636_PRES TD9635_LAT TD9635_LON TD9635_WIND TD9635_PRES TD9635_ROCI NEUMANN_LAT NEUMANN_LON NEUMANN_CLASS NEUMANN_WIND NEUMANN_PRES MLC_LAT MLC_LON MLC_CLASS MLC_WIND MLC_PRES USA_GUST BOM_GUST BOM_GUST_PER REUNION_GUST REUNION_GUST_PER USA_SEAHGT USA_SEARAD_NE USA_SEARAD_SE USA_SEARAD_SW USA_SEARAD_NW STORM_SPEED STORM_DIR
1976265N14332 1976 115 NA NA NOT_NAMED 1976-09-20 12:00:00 TS 13.5000 -28.0000 20 hurdat_atl main 1140 1140 O_____________ hurdat_atl AL151976 13.5000 -28.0000 TD 20 -1 13 297
1976265N14332 1976 115 NA NA NOT_NAMED 1976-09-20 15:00:00 TS 13.7877 -28.5873 main 1200 1200 P_____________ AL151976 13.7877 -28.5873 TD 22 -1 13 297
1976265N14332 1976 115 NA NA NOT_NAMED 1976-09-20 18:00:00 TS 14.1000 -29.2000 25 hurdat_atl main 1262 1262 O_____________ hurdat_atl AL151976 14.1000 -29.2000 TD 25 -1 14 298
1976265N14332 1976 115 NA NA NOT_NAMED 1976-09-20 21:00:00 TS 14.4499 -29.8500 main 1324 1334 P_____________ AL151976 14.4499 -29.8500 TD 25 -1 14 299
1976265N14332 1976 115 NA NA NOT_NAMED 1976-09-21 00:00:00 TS 14.8000 -30.5000 25 hurdat_atl main 1398 1398 O_____________ hurdat_atl AL151976 14.8000 -30.5000 TD 25 -1 14 299
1976265N14332 1976 115 NA NA NOT_NAMED 1976-09-21 03:00:00 TS 15.1072 -31.1003 main 1462 1462 P_____________ AL151976 15.1072 -31.1003 TD 27 -1 13 297
1976265N14332 1976 115 NA NA NOT_NAMED 1976-09-21 06:00:00 TS 15.4000 -31.7000 30 hurdat_atl main 1527 1527 O_____________ hurdat_atl AL151976 15.4000 -31.7000 TD 30 -1 13 296
1976265N14332 1976 115 NA NA NOT_NAMED 1976-09-21 09:00:00 TS 15.6924 -32.3427 main 1592 1592 P_____________ AL151976 15.6924 -32.3427 TD 30 -1 14 296
1976265N14332 1976 115 NA NA NOT_NAMED 1976-09-21 12:00:00 TS 16.0000 -33.0000 30 hurdat_atl main 1668 1668 O_____________ hurdat_atl AL151976 16.0000 -33.0000 TD 30 -1 14 297
1976265N14332 1976 115 NA NA NOT_NAMED 1976-09-21 15:00:00 TS 16.3500 -33.6799 main 1745 1745 P_____________ AL151976 16.3500 -33.6799 TD 30 -1 14 299
1976265N14332 1976 115 NA NA NOT_NAMED 1976-09-21 18:00:00 TS 16.7000 -34.3000 30 hurdat_atl main 1812 1812 O_____________ hurdat_atl AL151976 16.7000 -34.3000 TD 30 -1 12 302
1976265N14332 1976 115 NA NA NOT_NAMED 1976-09-21 21:00:00 TS 17.0070 -34.7580 main 1868 1868 P_____________ AL151976 17.0070 -34.7580 TD 30 -1 11 305
1976265N14332 1976 115 NA NA NOT_NAMED 1976-09-22 00:00:00 TS 17.3000 -35.2000 30 hurdat_atl main 1914 1914 O_____________ hurdat_atl AL151976 17.3000 -35.2000 TD 30 -1 11 301
1976265N14332 1976 115 NA NA NOT_NAMED 1976-09-22 03:00:00 TS 17.6001 -35.7851 main 1981 1981 P_____________ AL151976 17.6001 -35.7851 TD 30 -1 13 298
1976265N14332 1976 115 NA NA NOT_NAMED 1976-09-22 06:00:00 TS 17.9000 -36.4000 30 hurdat_atl main 2048 2048 O_____________ hurdat_atl AL151976 17.9000 -36.4000 TD 30 -1 12 299
1976265N14332 1976 115 NA NA NOT_NAMED 1976-09-22 09:00:00 TS 18.1916 -36.8982 main 2094 2094 P_____________ AL151976 18.1916 -36.8982 TD 30 -1 12 300
1976265N14332 1976 115 NA NA NOT_NAMED 1976-09-22 12:00:00 TS 18.5000 -37.5000 30 hurdat_atl main 2150 2150 O_____________ hurdat_atl AL151976 18.5000 -37.5000 TD 30 -1 16 295
1976265N14332 1976 115 NA NA NOT_NAMED 1976-09-22 15:00:00 TS 18.8503 -38.3899 main 2153 2115 P_____________ AL151976 18.8503 -38.3899 TD 30 -1 19 291
1976265N14332 1976 115 NA NA NOT_NAMED 1976-09-22 18:00:00 TS 19.2000 -39.4000 30 hurdat_atl main 2110 2078 O_____________ hurdat_atl AL151976 19.2000 -39.4000 TD 30 -1 20 290
1976265N14332 1976 115 NA NA NOT_NAMED 1976-09-22 21:00:00 TS 19.5070 -40.3505 main 2072 2046 P_____________ AL151976 19.5070 -40.3505 TD 30 -1 19 289
1976265N14332 1976 115 NA NA NOT_NAMED 1976-09-23 00:00:00 TS 19.8000 -41.3000 30 hurdat_atl main 2041 2009 O_____________ hurdat_atl AL151976 19.8000 -41.3000 TD 30 -1 19 288
1976265N14332 1976 115 NA NA NOT_NAMED 1976-09-23 03:00:00 TS 20.0996 -42.2578 main 2006 1983 P_____________ AL151976 20.0996 -42.2578 TD 30 -1 19 289
1976265N14332 1976 115 NA NA NOT_NAMED 1976-09-23 06:00:00 TS 20.4000 -43.2000 30 hurdat_atl main 1982 1958 O_____________ hurdat_atl AL151976 20.4000 -43.2000 TD 30 -1 19 289
1976265N14332 1976 115 NA NA NOT_NAMED 1976-09-23 09:00:00 TS 20.7381 -44.2194 main 1958 1948 P_____________ AL151976 20.7381 -44.2194 TD 30 -1 18 290
1976265N14332 1976 115 NA NA NOT_NAMED 1976-09-23 12:00:00 TS 21.0000 -45.0000 30 hurdat_atl main 1948 1944 O_____________ hurdat_atl AL151976 21.0000 -45.0000 TD 30 -1 10 290
1976265N14332 1976 115 NA NA NOT_NAMED 1976-09-23 15:00:00 TS 21.0866 -45.2556 main 1945 1945 P_____________ AL151976 21.0866 -45.2556 TD 30 -1 3 290
1976265N14332 1976 115 NA NA NOT_NAMED 1976-09-23 18:00:00 TS 21.1000 -45.3000 30 hurdat_atl main 1945 1936 O_____________ hurdat_atl AL151976 21.1000 -45.3000 TD 30 -1 2 286
1976265N14332 1976 115 NA NA NOT_NAMED 1976-09-23 21:00:00 TS 21.1500 -45.4925 main 1946 1937 P_____________ AL151976 21.1500 -45.4925 TD 30 -1 4 285
1976265N14332 1976 115 NA NA NOT_NAMED 1976-09-24 00:00:00 TS 21.2000 -45.7000 30 hurdat_atl main 1937 1929 O_____________ hurdat_atl AL151976 21.2000 -45.7000 TD 30 -1 4 284
1976265N14332 1976 115 NA NA NOT_NAMED 1976-09-24 03:00:00 TS 21.2425 -45.9000 main 1929 1929 P_____________ AL151976 21.2425 -45.9000 TD 30 -1 4 285
1976265N14332 1976 115 NA NA NOT_NAMED 1976-09-24 06:00:00 TS 21.3000 -46.1000 30 hurdat_atl main 1931 1927 O_____________ hurdat_atl AL151976 21.3000 -46.1000 TD 30 -1 4 292
1976265N14332 1976 115 NA NA NOT_NAMED 1976-09-24 09:00:00 TS 21.4000 -46.3224 main 1932 1927 P_____________ AL151976 21.4000 -46.3224 TD 30 -1 4 298
1976265N14332 1976 115 NA NA NOT_NAMED 1976-09-24 12:00:00 TS 21.5000 -46.5000 30 hurdat_atl main 1933 1928 O_____________ hurdat_atl AL151976 21.5000 -46.5000 TD 30 -1 3 304
1976265N14332 1976 115 NA NA NOT_NAMED 1976-09-24 15:00:00 TS 21.5575 -46.5726 main 1938 1938 P_____________ AL151976 21.5575 -46.5726 TD 30 -1 1 317
1976265N14332 1976 115 NA NA NOT_NAMED 1976-09-24 18:00:00 TS 21.6000 -46.6000 30 hurdat_atl main 1938 1938 O_____________ hurdat_atl AL151976 21.6000 -46.6000 TD 30 -1 1 326
1976265N14332 1976 115 NA NA NOT_NAMED 1976-09-24 21:00:00 TS 21.6500 -46.6500 main 1944 1934 P_____________ AL151976 21.6500 -46.6500 TD 30 -1 1 317
1976265N14332 1976 115 NA NA NOT_NAMED 1976-09-25 00:00:00 TS 21.7000 -46.7000 30 hurdat_atl main 1944 1944 O_____________ hurdat_atl AL151976 21.7000 -46.7000 TD 30 -1 1 318
1976265N14332 1976 115 NA NA NOT_NAMED 1976-09-25 03:00:00 TS 21.7425 -46.7425 main 1944 1944 P_____________ AL151976 21.7425 -46.7425 TD 30 -1 1 317
1976265N14332 1976 115 NA NA NOT_NAMED 1976-09-25 06:00:00 TS 21.8000 -46.8000 30 hurdat_atl main 1949 1945 O_____________ hurdat_atl AL151976 21.8000 -46.8000 TD 30 -1 2 303
1976265N14332 1976 115 NA NA NOT_NAMED 1976-09-25 09:00:00 TS 21.8550 -46.9298 main 1955 1948 P_____________ AL151976 21.8550 -46.9298 TD 30 -1 3 317
1976265N14332 1976 115 NA NA NOT_NAMED 1976-09-25 12:00:00 TS 22.0000 -47.0000 30 hurdat_atl main 1954 1954 O_____________ hurdat_atl AL151976 22.0000 -47.0000 TD 30 -1 5 4
1976265N14332 1976 115 NA NA NOT_NAMED 1976-09-25 15:00:00 TS 22.3051 -46.8802 main 1983 1983 P_____________ AL151976 22.3051 -46.8802 TD 30 -1 8 22
1976265N14332 1976 115 NA NA NOT_NAMED 1976-09-25 18:00:00 TS 22.7000 -46.7000 30 hurdat_atl main 2023 2023 O_____________ hurdat_atl AL151976 22.7000 -46.7000 TD 30 -1 8 18
1976265N14332 1976 115 NA NA NOT_NAMED 1976-09-25 21:00:00 TS 23.1000 -46.5999 main 2042 2042 P_____________ AL151976 23.1000 -46.5999 TD 27 -1 8 13
1976265N14332 1976 115 NA NA NOT_NAMED 1976-09-26 00:00:00 TS 23.5000 -46.5000 25 hurdat_atl main 2061 2061 O_____________ hurdat_atl AL151976 23.5000 -46.5000 TD 25 -1 8 17
1976265N14332 1976 115 NA NA NOT_NAMED 1976-09-26 03:00:00 TS 23.8500 -46.3500 main 2091 2081 P_____________ AL151976 23.8500 -46.3500 TD 25 -1 8 21
1976265N14332 1976 115 NA NA NOT_NAMED 1976-09-26 06:00:00 TS 24.2000 -46.2000 25 hurdat_atl main 2109 2109 O_____________ hurdat_atl AL151976 24.2000 -46.2000 TD 25 -1 8 16
1976265N14332 1976 115 NA NA NOT_NAMED 1976-09-26 09:00:00 TS 24.6149 -46.1148 main 2130 2130 P_____________ AL151976 24.6149 -46.1148 TD 25 -1 8 13
1976265N14332 1976 115 NA NA NOT_NAMED 1976-09-26 12:00:00 TS 25.0000 -46.0000 25 hurdat_atl main 2151 2151 O_____________ hurdat_atl AL151976 25.0000 -46.0000 TD 25 -1 7 25
1976265N14332 1976 115 NA NA NOT_NAMED 1976-09-26 15:00:00 TS 25.2725 -45.7725 main 2180 2180 P_____________ AL151976 25.2725 -45.7725 TD 25 -1 7 42
1976265N14332 1976 115 NA NA NOT_NAMED 1976-09-26 18:00:00 TS 25.5000 -45.5000 25 hurdat_atl main 2215 2215 O_____________ hurdat_atl AL151976 25.5000 -45.5000 TD 25 -1 7 45
1976265N14332 1976 115 NA NA NOT_NAMED 1976-09-26 21:00:00 TS 25.7500 -45.2499 main 2251 2251 P_____________ AL151976 25.7500 -45.2499 TD 25 -1 7 42
1976265N14332 1976 115 NA NA NOT_NAMED 1976-09-27 00:00:00 TS 26.0000 -45.0000 25 hurdat_atl main 2280 2280 O_____________ hurdat_atl AL151976 26.0000 -45.0000 TD 25 -1 7 42
1976265N14332 1976 115 NA NA NOT_NAMED 1976-09-27 03:00:00 TS 26.2500 -44.7499 main 2315 2315 P_____________ AL151976 26.2500 -44.7499 TD 22 -1 7 42
1976265N14332 1976 115 NA NA NOT_NAMED 1976-09-27 06:00:00 TS 26.5000 -44.5000 20 hurdat_atl main 2344 2344 O_____________ hurdat_atl AL151976 26.5000 -44.5000 TD 20 -1 7 42
1976265N14332 1976 115 NA NA NOT_NAMED 1976-09-27 09:00:00 TS 26.7501 -44.2502 main 2339 2327 P_____________ AL151976 26.7501 -44.2502 TD 20 -1 7 42
1976265N14332 1976 115 NA NA NOT_NAMED 1976-09-27 12:00:00 TS 27.0000 -44.0000 20 hurdat_atl main 2327 O_____________ hurdat_atl AL151976 27.0000 -44.0000 TD 20 -1 7 42

IBTrACS Databaseについて

本データベースは、米国NOAAが公開する1842年以降の世界の熱帯低気圧のベストトラックデータアーカイブInternational Best Track Archive for Climate Stewardship (IBTrACS)を、ウェブで閲覧しやすい形式に変換したものです。

最終更新日:2021-10-21